Utah County RPA :: 4IDAHOFALLS

liberation: 2020-09-27  07:50     latitude: 43.441800     longitude: -112.113850 86 birds
# LOFT PRING MILES ARRIVAL SPEED ToWin
1 Cole Allred AU20-NLI-2413 231.209 2020-09-27 12:05:51.593 1590.432 00:00:00
2 Riley Allred AU20-UCA-101 231.209 2020-09-27 12:05:52.573 1590.331 00:00:01
3 Riley Allred AU20-UCA-127 231.209 2020-09-27 12:05:56.411 1589.933 00:00:05
4 Riley Allred AU20-UCA-107 231.209 2020-09-27 12:06:01.470 1589.410 00:00:10
5 Riley Allred AU20-UCA-102 231.209 2020-09-27 12:06:04.907 1589.054 00:00:13
6 Riley Allred AU20-UCA-136 231.209 2020-09-27 12:06:29.835 1586.480 00:00:38
7 Riley Allred AU20-UCA-153 231.209 2020-09-27 12:06:30.616 1586.400 00:00:39
8 Riley Allred AU20-UCA-145 231.209 2020-09-27 12:07:45.478 1578.721 00:01:54
9 Riley Allred AU20-UCA-116 231.209 2020-09-27 12:07:45.871 1578.680 00:01:54
10 Riley Allred AU20-UCA-157 231.209 2020-09-27 12:07:47.622 1578.502 00:01:56
11 Cole Allred AU20-NLI-2417 231.209 2020-09-27 12:07:48.670 1578.395 00:01:57
12 Riley Allred AU20-UCA-139 231.209 2020-09-27 12:07:53.499 1577.902 00:02:02
13 Riley Allred AU20-UCA-169 231.209 2020-09-27 12:08:32.658 1573.919 00:02:41
14 Peery Loft AU20-UCA-0025 235.246 2020-09-27 12:13:40.887 1570.202 00:03:21
15 Riley Allred AU20-UCA-170 231.209 2020-09-27 12:10:16.383 1563.465 00:04:25
16 Cole Allred AU20-NLI-2015 231.209 2020-09-27 12:10:29.439 1562.159 00:04:38
17 Riley Allred AU20-UCA-119 231.209 2020-09-27 12:11:55.331 1553.621 00:06:04
18 Cole Allred AU20-NLI-2004 231.209 2020-09-27 12:12:03.386 1552.825 00:06:12
19 Craig Allred AU20-UVI-352 231.209 2020-09-27 12:12:04.305 1552.734 00:06:13
20 Craig Allred AU20-UVI-359 231.209 2020-09-27 12:13:13.893 1545.893 00:07:22
21 Dry Creek Lofts AU20-NEBO-338 237.223 2020-09-27 12:20:25.246 1543.938 00:07:54
22 Dry Creek Lofts AU20-NEBO-360 237.223 2020-09-27 12:20:25.622 1543.902 00:07:55
23 Dry Creek Lofts AU20-NEBO-352 237.223 2020-09-27 12:20:29.014 1543.579 00:07:58
24 Dry Creek Lofts AU20-NEBO-356 237.223 2020-09-27 12:20:33.852 1543.119 00:08:03
25 Peery Loft AU20-UCA-0033 235.246 2020-09-27 12:19:44.883 1534.888 00:09:25
26 Peery Loft AU20-UCA-0003 235.246 2020-09-27 12:19:56.491 1533.788 00:09:37
27 Cole Allred AU20-NLI-2121 231.209 2020-09-27 12:16:21.475 1527.748 00:10:30
28 Craig Allred AU20-UVI-357 231.209 2020-09-27 12:17:28.668 1521.352 00:11:37
29 Dry Creek Lofts AU20-NEBO-305 237.223 2020-09-27 12:26:02.555 1512.494 00:13:32
30 Dry Creek Lofts AU20-NEBO-311 237.223 2020-09-27 12:26:06.240 1512.158 00:13:35
31 Riley Allred AU20-UCA-106 231.209 2020-09-27 12:19:08.711 1511.927 00:13:17
32 Cole Allred AU20-HARM-1689 231.209 2020-09-27 12:20:09.040 1506.299 00:14:17
33 Riley Allred AU20-UCA-147 231.209 2020-09-27 12:20:23.621 1504.946 00:14:32
34 Cole Allred AU20-HARM-2617 231.209 2020-09-27 12:20:27.350 1504.600 00:14:36
35 Cole Allred AU20-NLI-2419 231.209 2020-09-27 12:20:28.506 1504.493 00:14:37
36 Riley Allred AU20-UCA-161 231.209 2020-09-27 12:20:38.652 1503.553 00:14:47
37 Ross Johnson AU20-NEBO-25 229.719 2020-09-27 12:18:56.693 1503.300 00:14:44
38 Ross Johnson AU20-NEBO-45 229.719 2020-09-27 12:18:57.331 1503.240 00:14:45
39 Riley Allred AU20-UCA-144 231.209 2020-09-27 12:20:44.187 1503.040 00:14:53
40 Cole Allred AU20-NLI-2503 231.209 2020-09-27 12:21:37.898 1498.087 00:15:46
41 Cole Allred AU20-HARM-1695 231.209 2020-09-27 12:21:55.058 1496.511 00:16:03
42 Dry Creek Lofts AU20-NEBO-361 237.223 2020-09-27 12:29:15.702 1495.060 00:16:45
43 Craig Allred AU20-UVI-358 231.209 2020-09-27 12:23:09.408 1489.722 00:17:18
44 Dry Creek Lofts AU20-NEBO-328 237.223 2020-09-27 12:30:25.325 1488.873 00:17:54
45 Dry Creek Lofts AU20-UCA-301 237.223 2020-09-27 12:31:31.424 1483.047 00:19:00
46 Craig Allred AU20-UVI-303 231.209 2020-09-27 12:24:26.177 1482.777 00:18:35
47 Riley Allred AU20-UCA-151 231.209 2020-09-27 12:27:35.011 1465.965 00:21:43
48 Craig Allred AU20-UVI-329 231.209 2020-09-27 12:27:35.395 1465.931 00:21:44
49 Craig Allred AU20-UVI-361 231.209 2020-09-27 12:27:41.209 1465.420 00:21:50
50 Dry Creek Lofts AU20-UCA-358 237.223 2020-09-27 12:35:01.314 1464.845 00:22:30
51 Dry Creek Lofts AU20-NEB0-334 237.223 2020-09-27 12:36:18.725 1458.244 00:23:48
52 Peery Loft AU20-UCA-0035 235.246 2020-09-27 12:43:48.795 1409.171 00:33:29
53 Dry Creek Lofts AU20-NEBO-332 237.223 2020-09-27 12:48:47.910 1397.306 00:36:17
54 Peery Loft AU20-UCA-0022 235.246 2020-09-27 12:46:21.553 1397.065 00:36:02
55 Dry Creek Lofts AU20-NEBO-327 237.223 2020-09-27 12:50:51.863 1387.711 00:38:21
56 Dry Creek Lofts AU20-NEBO-349 237.223 2020-09-27 12:50:53.855 1387.558 00:38:23
57 Ross Johnson AU20-NEBO-15 229.719 2020-09-27 12:42:06.968 1384.055 00:37:54
58 Ross Johnson AU20-NEBO-13 229.719 2020-09-27 12:42:14.834 1383.434 00:38:02
59 Dry Creek Lofts AU20-NEBO-315 237.223 2020-09-27 13:02:43.750 1335.062 00:50:13
60 Dry Creek Lofts AU20-NEBO-301 237.223 2020-09-27 13:02:44.758 1334.990 00:50:14
61 Cole Allred IF20-VDB-31 231.209 2020-09-27 12:59:58.211 1312.797 00:54:07
62 Ross Johnson AU20-NEBO-20 229.719 2020-09-27 13:04:52.922 1283.988 01:00:40
63 Dry Creek Lofts AU20-NEBO-340 237.223 2020-09-27 13:17:41.057 1274.132 01:05:10
64 Dry Creek Lofts AU20-NEBO-322 237.223 2020-09-27 13:17:45.569 1273.839 01:05:15
65 Riley Allred AU20-UCA-166 231.209 2020-09-27 13:10:40.968 1268.942 01:04:49
66 Peery Loft AU20-UCA-0067 235.246 2020-09-27 13:17:18.883 1264.939 01:06:59
67 Cole Allred AU20-NLI-2021 231.209 2020-09-27 13:15:49.123 1248.939 01:09:58
68 Dry Creek Lofts AU20-NEBO-329 237.223 2020-09-27 13:26:14.870 1241.682 01:13:44
69 Dry Creek Lofts AU-20-NEBO-323 237.223 2020-09-27 14:01:55.006 1122.598 01:49:24
70 Dry Creek Lofts AU20-NEBO-325 237.223 2020-09-27 14:17:26.958 1077.594 02:04:56
71 Peery Loft AU20-UCA-0019 235.246 2020-09-27 14:33:28.016 1026.188 02:23:08
72 Craig Allred AU20-UVI-366 231.209 2020-09-27 14:34:49.089 1005.211 02:28:58
73 Ross Johnson AU20-NEBO-33 229.719 2020-09-27 14:34:07.742 1000.435 02:29:55
74 Dry Creek Lofts AU20-NEBO-348 237.223 2020-09-27 18:27:56.468 654.469 06:15:26
Craig Allred AU20-UVI-311 0 0000-00-00 00:00:00.000 0.000 00:00:00
Craig Allred AU20-UVI-314 0 0000-00-00 00:00:00.000 0.000 00:00:00
Dry Creek Lofts AU20-NEBO-319 0 0000-00-00 00:00:00.000 0.000 00:00:00
Dry Creek Lofts AU20-NEBO-333 0 0000-00-00 00:00:00.000 0.000 00:00:00
Dry Creek Lofts AU20-NEBO-336 0 0000-00-00 00:00:00.000 0.000 00:00:00
Dry Creek Lofts AU20-NEBO-357 0 0000-00-00 00:00:00.000 0.000 00:00:00
Peery Loft AU20-UCA-0012 0 0000-00-00 00:00:00.000 0.000 00:00:00
Riley Allred AU20-UCA-109 0 0000-00-00 00:00:00.000 0.000 00:00:00
Riley Allred AU20-UCA-138 0 0000-00-00 00:00:00.000 0.000 00:00:00
Riley Allred AU20-UCA-150 0 0000-00-00 00:00:00.000 0.000 00:00:00
Ross Johnson AU20-NEBO-28 0 0000-00-00 00:00:00.000 0.000 00:00:00
Ross Johnson AU20-NEBO-64 0 0000-00-00 00:00:00.000 0.000 00:00:00